Aviation Digital Data Service (ADDS)

Output produced by TAFs form (1356 UTC 23 April 2017)
found at http://aviationweather.gov/adds/tafs/
 
KTCS 231120Z 2312/2412 VRB05KT P6SM SKC 
     FM231400 17010KT P6SM SKC 
     FM231800 19014G24KT P6SM SKC 
     FM240400 28008KT P6SM SKC